Time;durP1;ratioP1;P1;durP2;ratioP2;P2;SDS_P1;SDS_P2;PMS_P1;PMS_P2;Temp;Humidity;BMP_temperature;BMP_pressure;BME280_temperature;BME280_humidity;BME280_pressure;Samples;Min_cycle;Max_cycle;Signal;HPM_P1;HPM_P2
2021/12/19 00:01:14;;;;;;;;;;;7.20;99.90;;;7.28;66.06;99280.44;5031810;28;19958;-83
2021/12/19 00:09:10;;;;;;;;;;;7.20;99.90;;;7.38;65.91;99297.66;5022922;28;19925;-83
2021/12/19 00:11:36;;;;;;;;;;;7.20;99.90;;;7.34;65.65;99279.47;5002395;28;19929;-83
2021/12/19 00:14:02;;;;;;;;;;;7.20;99.90;;;7.42;65.56;99264.78;5023324;28;19935;-83
2021/12/19 00:16:28;;;;;;;;;;;7.20;99.90;;;7.55;64.75;99284.19;5019032;28;19925;-83
2021/12/19 00:18:54;;;;;;;;;;;7.40;99.90;;;7.51;64.47;99284.94;5015788;28;19929;-83
2021/12/19 00:21:21;;;;;;;;;;;7.40;99.90;;;7.48;64.59;99282.69;4998596;28;19929;-83
2021/12/19 00:23:49;;;;;;;;;;;7.30;99.90;;;7.43;65.19;99278.03;5031956;28;19960;-83
2021/12/19 00:26:15;;;;;;;;;;;7.30;99.90;;;7.42;64.88;99264.78;5017130;28;19933;-83
2021/12/19 00:28:42;;;;;;;;;;;7.30;99.90;;;7.49;64.72;99262.75;5020500;28;19975;-83
2021/12/19 00:31:08;;;;;;;;;;;7.40;99.90;;;7.58;64.43;99256.72;5031742;28;20127;-83
2021/12/19 00:33:34;;;;;;;;;;;7.40;99.90;;;7.50;64.17;99264.38;5000805;28;19944;-83
2021/12/19 00:36:00;;;;;;;;;;;7.40;99.90;;;7.63;64.00;99247.06;5016958;28;19974;-83
2021/12/19 00:38:26;;;;;;;;;;;7.40;99.90;;;7.66;63.69;99255.50;4998540;28;19931;-83
2021/12/19 00:40:52;;;;;;;;;;;7.40;99.90;;;7.66;62.91;99262.75;5030836;28;19935;-83
2021/12/19 00:46:08;;;;;;;;;;;7.60;99.90;;;7.59;64.00;99249.44;5033386;28;19928;-83
2021/12/19 00:48:47;;;;;;;;;;;7.50;99.90;;;7.64;63.14;99249.53;5018910;28;19972;-83
2021/12/19 00:51:15;;;;;;;;;;;7.50;99.90;;;7.70;63.20;99248.53;5019141;28;20336;-83
2021/12/19 00:53:42;;;;;;;;;;;7.50;99.90;;;7.75;62.77;99239.72;5019414;28;19929;-83
2021/12/19 00:56:11;;;;;;;;;;;7.50;99.90;;;7.75;62.79;99253.22;5018053;28;19925;-83
2021/12/19 00:58:37;;;;;;;;;;;7.60;99.90;;;7.77;62.62;99251.09;5003783;28;19967;-83
2021/12/19 01:01:05;;;;;;;;;;;7.60;99.90;;;7.71;62.86;99242.09;5033423;28;19936;-83
2021/12/19 01:03:31;;;;;;;;;;;7.60;99.90;;;7.70;62.83;99228.81;5036360;28;19982;-83
2021/12/19 01:05:57;;;;;;;;;;;7.60;99.90;;;7.64;63.06;99225.22;5001787;28;20383;-83
2021/12/19 01:08:22;;;;;;;;;;;7.60;99.90;;;7.67;63.25;99219.34;5017570;28;20239;-83
2021/12/19 01:10:48;;;;;;;;;;;7.60;99.90;;;7.79;62.83;99219.28;5031240;28;19929;-83
2021/12/19 01:13:15;;;;;;;;;;;7.60;99.90;;;7.82;62.94;99214.19;5031354;28;19935;-83
2021/12/19 01:15:40;;;;;;;;;;;7.60;99.90;;;7.81;63.16;99193.66;5034171;28;20456;-83
2021/12/19 01:18:06;;;;;;;;;;;7.60;99.90;;;7.80;62.76;99193.88;5014615;28;19938;-83
2021/12/19 01:20:33;;;;;;;;;;;7.70;99.90;;;7.80;62.55;99161.47;5004593;28;19928;-83
2021/12/19 01:23:01;;;;;;;;;;;7.60;99.90;;;7.73;62.88;99171.63;5031704;28;19932;-83
2021/12/19 01:25:27;;;;;;;;;;;7.70;99.90;;;7.80;63.16;99178.50;5003085;28;20019;-83
2021/12/19 01:27:55;;;;;;;;;;;7.60;99.90;;;7.82;62.72;99164.75;5016909;28;19968;-83
2021/12/19 01:30:21;;;;;;;;;;;7.60;99.90;;;7.82;63.64;99153.97;5029903;28;19959;-83
2021/12/19 01:32:47;;;;;;;;;;;7.70;99.90;;;7.79;63.01;99149.88;5034210;28;19928;-83
2021/12/19 01:35:14;;;;;;;;;;;7.70;99.90;;;7.82;63.52;99153.97;4996605;28;19950;-83
2021/12/19 01:37:40;;;;;;;;;;;7.70;99.90;;;7.75;63.55;99159.50;5034987;28;19929;-83
2021/12/19 01:40:07;;;;;;;;;;;7.60;99.90;;;7.67;64.43;99151.03;5013274;28;19959;-83
2021/12/19 01:42:34;;;;;;;;;;;7.60;99.90;;;7.69;63.80;99143.50;5030625;28;19975;-83
2021/12/19 01:45:00;;;;;;;;;;;7.60;99.90;;;7.71;64.30;99130.53;4998213;28;19936;-83
2021/12/19 01:47:26;;;;;;;;;;;7.60;99.90;;;7.71;64.24;99130.53;5012711;28;20066;-83
2021/12/19 01:49:52;;;;;;;;;;;7.60;99.90;;;7.74;63.99;99130.06;5016921;28;19935;-83
2021/12/19 01:52:18;;;;;;;;;;;7.60;99.90;;;7.66;64.52;99116.97;5013151;28;19929;-83
2021/12/19 01:54:45;;;;;;;;;;;7.60;99.90;;;7.59;64.17;99122.56;5015594;28;19933;-83
2021/12/19 01:57:11;;;;;;;;;;;7.60;99.90;;;7.61;64.83;99113.13;5018577;28;19978;-83
2021/12/19 01:59:37;;;;;;;;;;;7.50;99.90;;;7.57;64.81;99114.69;5015802;28;19929;-83
2021/12/19 02:02:03;;;;;;;;;;;7.50;99.90;;;7.56;65.12;99112.25;4998959;28;19925;-83
2021/12/19 02:04:30;;;;;;;;;;;7.50;99.90;;;7.57;64.82;99109.28;5022821;28;19932;-83
2021/12/19 02:06:59;;;;;;;;;;;7.50;99.90;;;7.69;65.15;99119.19;5016237;28;19933;-83
2021/12/19 02:09:25;;;;;;;;;;;7.40;99.90;;;7.66;64.44;99115.09;5004043;28;20354;-83
2021/12/19 02:11:51;;;;;;;;;;;7.50;99.90;;;7.64;64.63;99108.31;5027993;28;20300;-83
2021/12/19 02:14:17;;;;;;;;;;;7.50;99.90;;;7.59;65.39;99107.16;5016609;28;20023;-83
2021/12/19 02:16:43;;;;;;;;;;;7.50;99.90;;;7.55;65.25;99102.50;4997978;28;19929;-82
2021/12/19 02:19:10;;;;;;;;;;;7.50;99.90;;;7.55;65.89;99095.22;5044745;28;19979;-83
2021/12/19 02:21:36;;;;;;;;;;;7.50;99.90;;;7.50;66.24;99094.31;5002812;28;19925;-83
2021/12/19 02:24:05;;;;;;;;;;;7.40;99.90;;;7.49;66.03;99101.59;5019460;28;19929;-83
2021/12/19 02:26:32;;;;;;;;;;;7.40;99.90;;;7.41;66.23;99093.94;5031620;28;20382;-83
2021/12/19 02:28:57;;;;;;;;;;;7.40;99.90;;;7.36;66.95;99083.88;5013601;28;19929;-83
2021/12/19 02:31:24;;;;;;;;;;;7.40;99.90;;;7.47;66.16;99090.22;5022056;28;19935;-83
2021/12/19 02:34:03;;;;;;;;;;;7.40;99.90;;;7.42;66.97;99060.47;5017188;28;20403;-83
2021/12/19 02:36:51;;;;;;;;;;;7.30;99.90;;;7.38;67.12;99052.06;5019573;28;19929;-83
2021/12/19 02:50:04;;;;;;;;;;;7.30;99.90;;;7.44;66.62;99007.06;5024700;28;20007;-83
2021/12/19 02:52:29;;;;;;;;;;;7.30;99.90;;;7.48;66.87;99002.81;5020473;28;20234;-83
2021/12/19 02:54:55;;;;;;;;;;;7.40;99.90;;;7.56;66.36;99002.38;5034551;28;19935;-83
2021/12/19 02:57:22;;;;;;;;;;;7.40;99.90;;;7.56;66.64;98994.28;5019327;28;19940;-83
2021/12/19 02:59:48;;;;;;;;;;;7.30;99.90;;;7.54;66.48;98999.09;5036357;28;19928;-84
2021/12/19 03:02:15;;;;;;;;;;;7.30;99.90;;;7.49;66.38;99009.84;5001930;28;20217;-83
2021/12/19 03:04:58;;;;;;;;;;;7.40;99.90;;;7.39;66.67;98997.00;5023987;28;19932;-83
2021/12/19 03:07:25;;;;;;;;;;;7.30;99.90;;;7.38;66.79;99002.66;5036690;28;19971;-83
2021/12/19 03:17:59;;;;;;;;;;;7.20;99.90;;;7.28;66.65;98975.53;5026519;28;20394;-83
2021/12/19 03:20:30;;;;;;;;;;;7.20;99.90;;;7.25;67.18;98971.44;5034986;28;19928;-83
2021/12/19 03:22:58;;;;;;;;;;;7.20;99.90;;;7.29;67.30;98967.16;5003868;28;19928;-83
2021/12/19 03:25:24;;;;;;;;;;;7.20;99.90;;;7.36;67.12;98956.22;5009723;28;19933;-81
2021/12/19 03:27:50;;;;;;;;;;;7.20;99.90;;;7.31;66.62;98943.47;5020202;28;20273;-81
2021/12/19 03:30:16;;;;;;;;;;;7.20;99.90;;;7.26;67.35;98929.91;5020782;28;19936;-81
2021/12/19 03:32:42;;;;;;;;;;;7.20;99.90;;;7.21;66.77;98924.44;5002090;28;20011;-81
2021/12/19 03:35:08;;;;;;;;;;;7.10;99.90;;;7.18;67.43;98917.66;5031401;28;19939;-81
2021/12/19 03:37:34;;;;;;;;;;;7.10;99.90;;;7.24;67.25;98910.44;5045566;28;20351;-81
2021/12/19 03:40:11;;;;;;;;;;;7.20;99.90;;;7.18;67.61;98900.66;5017324;28;19935;-81
2021/12/19 03:42:44;;;;;;;;;;;7.20;99.90;;;7.17;67.43;98904.41;5024545;28;20031;-81
2021/12/19 03:45:12;;;;;;;;;;;7.10;99.90;;;7.13;67.42;98893.31;5033826;28;19936;-81
2021/12/19 03:47:38;;;;;;;;;;;7.10;99.90;;;7.11;68.21;98889.22;5014407;28;19929;-81
2021/12/19 03:50:05;;;;;;;;;;;7.00;99.90;;;7.18;67.19;98885.28;5030765;28;19986;-81
2021/12/19 03:52:31;;;;;;;;;;;7.00;99.90;;;7.23;67.40;98881.03;5003839;28;19932;-81
2021/12/19 03:54:57;;;;;;;;;;;7.10;99.90;;;7.20;67.59;98889.59;5033271;28;19929;-81
2021/12/19 03:57:22;;;;;;;;;;;7.00;99.90;;;7.13;67.25;98879.81;5012587;28;19935;-81
2021/12/19 03:59:49;;;;;;;;;;;7.00;99.90;;;7.23;67.35;98883.72;5013463;28;19971;-81
2021/12/19 04:02:25;;;;;;;;;;;7.10;99.90;;;7.29;66.73;98875.44;5036188;28;19939;-80
2021/12/19 04:04:51;;;;;;;;;;;7.20;99.90;;;7.22;67.22;98865.88;5034345;28;19990;-81
2021/12/19 04:07:17;;;;;;;;;;;7.10;99.90;;;7.23;67.48;98864.84;5035292;28;19980;-81
2021/12/19 04:09:43;;;;;;;;;;;7.20;99.90;;;7.21;67.37;98854.28;5012728;28;20256;-81
2021/12/19 04:12:09;;;;;;;;;;;7.20;99.90;;;7.29;67.16;98850.34;4999611;28;19947;-81
2021/12/19 04:14:35;;;;;;;;;;;7.20;99.90;;;7.37;67.00;98855.28;5038334;28;19932;-81
2021/12/19 04:17:01;;;;;;;;;;;7.20;99.90;;;7.27;67.09;98858.66;5029584;28;19933;-81
2021/12/19 04:19:28;;;;;;;;;;;7.20;99.90;;;7.24;67.59;98852.97;5020953;28;19929;-81
2021/12/19 04:21:55;;;;;;;;;;;7.20;99.90;;;7.12;67.68;98835.03;5018463;28;19981;-81
2021/12/19 04:24:21;;;;;;;;;;;7.10;99.90;;;7.12;67.51;98824.25;5035578;28;19946;-81
2021/12/19 04:26:47;;;;;;;;;;;7.00;99.90;;;7.21;67.72;98821.09;5016915;28;19929;-81
2021/12/19 04:29:15;;;;;;;;;;;7.00;99.90;;;7.31;67.69;98823.94;5005486;28;19929;-81
2021/12/19 04:31:41;;;;;;;;;;;7.00;99.90;;;7.24;67.64;98818.72;5037909;28;19939;-81
2021/12/19 04:34:07;;;;;;;;;;;7.10;99.90;;;7.24;67.37;98809.81;5018601;28;19935;-81
2021/12/19 04:36:38;;;;;;;;;;;7.10;99.90;;;7.37;66.95;98796.72;5016789;28;19928;-81
2021/12/19 04:44:45;;;;;;;;;;;7.20;99.90;;;7.28;67.55;98789.34;5032616;28;20027;-81
2021/12/19 04:57:54;;;;;;;;;;;7.20;99.90;;;7.28;67.61;98784.78;5029260;28;19986;-81
2021/12/19 05:00:35;;;;;;;;;;;7.10;99.90;;;7.16;67.98;98773.28;5004040;28;19932;-81
2021/12/19 05:03:15;;;;;;;;;;;7.10;99.90;;;7.28;67.99;98789.34;5042829;28;19947;-81
2021/12/19 05:05:55;;;;;;;;;;;7.10;99.90;;;7.14;67.66;98786.22;5005471;28;20412;-81
2021/12/19 05:14:08;;;;;;;;;;;7.10;99.90;;;7.23;67.63;98784.72;5026060;28;19928;-81
2021/12/19 05:16:37;;;;;;;;;;;7.20;99.90;;;7.15;67.68;98777.06;5015638;28;20435;-81
2021/12/19 05:19:09;;;;;;;;;;;7.20;99.90;;;7.07;68.24;98777.47;5031933;28;20300;-81
2021/12/19 05:21:38;;;;;;;;;;;7.10;99.90;;;7.05;68.03;98776.94;5020989;28;20405;-81
2021/12/19 05:24:20;;;;;;;;;;;7.10;99.90;;;7.10;68.26;98769.72;5018239;28;20351;-81
2021/12/19 05:26:47;;;;;;;;;;;7.10;99.90;;;7.14;67.92;98767.31;5045556;28;20019;-82
2021/12/19 05:29:14;;;;;;;;;;;7.10;99.90;;;7.17;68.21;98747.94;5053725;28;19985;-81
2021/12/19 05:31:40;;;;;;;;;;;7.10;99.90;;;7.22;67.95;98739.09;5004501;28;19935;-81
2021/12/19 05:34:06;;;;;;;;;;;7.10;99.90;;;7.23;67.48;98748.81;5017060;28;19928;-81
2021/12/19 05:47:25;;;;;;;;;;;7.30;99.90;;;7.37;67.25;98745.47;5015400;28;19929;-83
2021/12/19 05:49:51;;;;;;;;;;;7.30;99.90;;;7.37;66.42;98737.34;5015391;28;20455;-83
2021/12/19 05:52:17;;;;;;;;;;;7.30;99.90;;;7.30;66.92;98744.88;5017318;28;19928;-83
2021/12/19 05:54:43;;;;;;;;;;;7.30;99.90;;;7.40;66.84;98741.44;5017105;28;19928;-83
2021/12/19 05:57:09;;;;;;;;;;;7.30;99.90;;;7.32;66.83;98741.91;5003675;28;19929;-83
2021/12/19 05:59:35;;;;;;;;;;;7.30;99.90;;;7.41;66.44;98755.75;5017697;28;19931;-82
2021/12/19 06:02:01;;;;;;;;;;;7.30;99.90;;;7.25;66.77;98760.16;5002979;28;20035;-83
2021/12/19 06:04:28;;;;;;;;;;;7.20;99.90;;;7.27;66.87;98739.16;5017905;28;19933;-83
2021/12/19 06:06:54;;;;;;;;;;;7.20;99.90;;;7.31;66.79;98751.06;5014893;28;19929;-82
2021/12/19 06:09:19;;;;;;;;;;;7.20;99.90;;;7.36;66.29;98751.13;5034000;28;19924;-82
2021/12/19 06:11:45;;;;;;;;;;;7.30;99.90;;;7.35;66.23;98757.56;5020938;28;20025;-82
2021/12/19 06:14:11;;;;;;;;;;;7.30;99.90;;;7.50;65.67;98743.44;5020538;28;20398;-81
2021/12/19 06:16:37;;;;;;;;;;;7.30;99.90;;;7.44;65.84;98729.06;4999988;28;19936;-82
2021/12/19 06:19:04;;;;;;;;;;;7.30;99.90;;;7.47;65.24;98733.97;5028435;28;19975;-82
2021/12/19 06:21:30;;;;;;;;;;;7.30;99.90;;;7.43;65.40;98711.25;5009710;28;19936;-82
2021/12/19 06:23:56;;;;;;;;;;;7.40;99.90;;;7.41;65.75;98721.50;5018802;28;19929;-82
2021/12/19 06:26:22;;;;;;;;;;;7.30;99.90;;;7.45;65.56;98705.59;5035843;28;19928;-83
2021/12/19 06:28:48;;;;;;;;;;;7.40;99.90;;;7.35;65.33;98715.25;5002719;28;19936;-82
2021/12/19 06:31:16;;;;;;;;;;;7.30;99.90;;;7.43;64.60;98705.03;5038646;28;19933;-82
2021/12/19 06:33:42;;;;;;;;;;;7.30;99.90;;;7.37;64.93;98706.88;5021862;28;20296;-82
2021/12/19 06:36:09;;;;;;;;;;;7.30;99.90;;;7.38;64.82;98712.03;5020514;28;19924;-82
2021/12/19 06:38:35;;;;;;;;;;;7.30;99.90;;;7.39;65.21;98713.63;5036644;28;19925;-82
2021/12/19 06:41:01;;;;;;;;;;;7.30;99.90;;;7.46;64.90;98691.03;5028327;28;20054;-82
2021/12/19 06:43:30;;;;;;;;;;;7.40;99.90;;;7.42;64.93;98701.53;5017918;28;19933;-82
2021/12/19 06:45:58;;;;;;;;;;;7.40;99.90;;;7.37;65.18;98693.38;5035031;28;19986;-83
2021/12/19 06:48:25;;;;;;;;;;;7.40;99.90;;;7.38;65.15;98663.44;5022901;28;19936;-82
2021/12/19 06:50:51;;;;;;;;;;;7.40;99.90;;;7.52;64.11;98690.00;5026234;28;19925;-82
2021/12/19 06:53:17;;;;;;;;;;;7.40;99.90;;;7.49;64.30;98682.44;5024824;28;19932;-82
2021/12/19 06:55:43;;;;;;;;;;;7.40;99.90;;;7.46;64.28;98689.16;5037786;28;19968;-83
2021/12/19 06:58:09;;;;;;;;;;;7.40;99.90;;;7.48;64.25;98687.03;5038734;28;19948;-82
2021/12/19 07:00:35;;;;;;;;;;;7.40;99.90;;;7.54;64.53;98687.88;5022177;28;19929;-82
2021/12/19 07:03:01;;;;;;;;;;;7.50;99.90;;;7.58;63.79;98691.66;5008748;28;19940;-82
2021/12/19 07:05:27;;;;;;;;;;;7.50;99.90;;;7.64;64.04;98679.06;5025009;28;19931;-81
2021/12/19 07:07:52;;;;;;;;;;;7.50;99.90;;;7.60;64.27;98673.34;5038263;28;19925;-81
2021/12/19 07:10:18;;;;;;;;;;;7.50;99.90;;;7.55;64.07;98668.72;5034681;28;20083;-81
2021/12/19 07:12:44;;;;;;;;;;;7.50;99.90;;;7.57;64.39;98663.88;5037244;28;20458;-81
2021/12/19 07:15:10;;;;;;;;;;;7.50;99.90;;;7.51;64.53;98647.91;5002416;28;19932;-85
2021/12/19 07:17:36;;;;;;;;;;;7.50;99.90;;;7.48;64.04;98661.88;5017279;28;20011;-84
2021/12/19 07:20:04;;;;;;;;;;;7.50;99.90;;;7.54;64.29;98636.59;5015890;28;19929;-85
2021/12/19 07:22:30;;;;;;;;;;;7.50;99.90;;;7.54;63.97;98661.69;5018741;28;19931;-83
2021/12/19 07:24:58;;;;;;;;;;;7.60;99.90;;;7.45;64.27;98652.44;5015907;28;20593;-83
2021/12/19 07:27:24;;;;;;;;;;;7.50;99.90;;;7.47;65.13;98649.47;5025049;28;19935;-83
2021/12/19 07:29:52;;;;;;;;;;;7.50;99.90;;;7.51;64.54;98656.00;5017054;28;19948;-83
2021/12/19 07:32:18;;;;;;;;;;;7.50;99.90;;;7.58;64.59;98643.91;5002522;28;20019;-83
2021/12/19 07:34:46;;;;;;;;;;;7.50;99.90;;;7.54;64.41;98645.50;5012969;28;20014;-83
2021/12/19 07:37:12;;;;;;;;;;;7.50;99.90;;;7.63;64.48;98647.72;5033678;28;19929;-82
2021/12/19 07:39:51;;;;;;;;;;;7.50;99.90;;;7.64;64.32;98650.16;5019418;28;19928;-83
2021/12/19 07:42:17;;;;;;;;;;;7.50;99.90;;;7.62;64.45;98657.72;5009115;28;19951;-83
2021/12/19 07:44:43;;;;;;;;;;;7.50;99.90;;;7.64;64.56;98649.38;5038533;28;20019;-83
2021/12/19 07:47:09;;;;;;;;;;;7.50;99.90;;;7.53;64.45;98656.53;5022144;28;19928;-83
2021/12/19 07:49:34;;;;;;;;;;;7.60;99.90;;;7.51;65.20;98669.50;5008931;28;19929;-83
2021/12/19 07:52:01;;;;;;;;;;;7.50;99.90;;;7.63;64.50;98655.81;5022673;28;24852;-83
2021/12/19 07:54:26;;;;;;;;;;;7.50;99.90;;;7.58;64.54;98688.97;5012099;28;20569;-83
2021/12/19 07:56:52;;;;;;;;;;;7.50;99.90;;;7.61;64.98;98683.88;5001072;28;19925;-82
2021/12/19 07:59:19;;;;;;;;;;;7.40;99.90;;;7.58;65.37;98694.38;4999165;28;19984;-80
2021/12/19 08:01:44;;;;;;;;;;;7.50;99.90;;;7.51;65.01;98691.91;5027539;28;19935;-81
2021/12/19 08:04:10;;;;;;;;;;;7.50;99.90;;;7.60;64.60;98690.34;5018688;28;19929;-81
2021/12/19 08:06:36;;;;;;;;;;;7.50;99.90;;;7.53;65.15;98660.06;5021327;28;19936;-81
2021/12/19 08:09:08;;;;;;;;;;;7.50;99.90;;;7.52;65.45;98673.81;5053478;28;20383;-81
2021/12/19 08:11:40;;;;;;;;;;;7.50;99.90;;;7.54;65.78;98683.28;5018512;28;20471;-81
2021/12/19 08:14:08;;;;;;;;;;;7.50;99.90;;;7.64;65.28;98682.56;5016626;28;19972;-81
2021/12/19 08:16:35;;;;;;;;;;;7.50;99.90;;;7.72;65.57;98686.69;5023273;28;19928;-82
2021/12/19 08:19:01;;;;;;;;;;;7.60;99.90;;;7.74;66.10;98692.63;5039516;28;19932;-81
2021/12/19 08:21:27;;;;;;;;;;;7.70;99.90;;;7.72;65.86;98700.19;5023850;28;19936;-81
2021/12/19 08:23:53;;;;;;;;;;;7.70;99.90;;;7.89;65.47;98694.66;5035354;28;20375;-81
2021/12/19 08:26:19;;;;;;;;;;;7.80;99.90;;;7.96;65.22;98690.66;5032037;28;19925;-81
2021/12/19 08:28:45;;;;;;;;;;;7.90;99.90;;;7.97;65.16;98681.47;5018791;28;19929;-81
2021/12/19 08:31:11;;;;;;;;;;;7.90;99.90;;;8.01;65.57;98681.75;5019604;28;20418;-81
2021/12/19 08:33:37;;;;;;;;;;;8.00;99.90;;;8.13;65.46;98684.28;5016011;28;20392;-81
2021/12/19 08:36:03;;;;;;;;;;;8.10;99.90;;;8.22;64.13;98683.53;5016104;28;20319;-81
2021/12/19 08:38:29;;;;;;;;;;;8.20;99.90;;;8.23;63.73;98685.13;5024848;28;19931;-81
2021/12/19 08:40:55;;;;;;;;;;;8.20;99.90;;;8.42;64.51;98682.88;5016124;28;20392;-81
2021/12/19 08:43:21;;;;;;;;;;;8.30;99.90;;;8.46;64.26;98685.84;5006695;28;19933;-81
2021/12/19 08:45:47;;;;;;;;;;;8.40;99.90;;;8.43;64.20;98687.19;5013422;28;19925;-81
2021/12/19 08:48:13;;;;;;;;;;;8.40;99.90;;;8.48;64.05;98695.31;5017338;28;19935;-81
2021/12/19 08:50:39;;;;;;;;;;;8.50;99.90;;;8.51;63.69;98695.88;5033517;28;19978;-81
2021/12/19 08:53:06;;;;;;;;;;;8.50;99.90;;;8.55;63.76;98686.16;5017411;28;19924;-82
2021/12/19 08:55:32;;;;;;;;;;;8.50;99.90;;;8.62;64.16;98695.66;5019198;28;20062;-81
2021/12/19 08:57:59;;;;;;;;;;;8.60;99.90;;;8.70;63.59;98697.03;5001471;28;19928;-81
2021/12/19 09:00:24;;;;;;;;;;;8.70;99.90;;;8.82;63.23;98681.41;5008616;28;19931;-81
2021/12/19 09:02:53;;;;;;;;;;;8.80;99.90;;;8.87;62.92;98689.53;5018762;28;19928;-82
2021/12/19 09:05:20;;;;;;;;;;;8.90;99.90;;;8.85;62.24;98680.06;5003236;28;20011;-81
2021/12/19 09:07:45;;;;;;;;;;;8.90;99.90;;;8.75;62.72;98672.75;5015281;28;20012;-81
2021/12/19 09:10:12;;;;;;;;;;;8.80;99.90;;;8.72;63.81;98665.13;5030297;28;20284;-84
2021/12/19 09:12:40;;;;;;;;;;;8.80;99.90;;;8.73;63.42;98665.94;5001247;28;19932;-85
2021/12/19 09:15:06;;;;;;;;;;;8.80;99.90;;;8.70;62.94;98667.28;5016053;28;20403;-85
2021/12/19 09:17:32;;;;;;;;;;;8.80;99.90;;;8.91;62.55;98666.28;5002637;28;20440;-84
2021/12/19 09:19:58;;;;;;;;;;;8.90;99.90;;;8.78;62.72;98641.66;5001874;28;19925;-85
2021/12/19 09:22:24;;;;;;;;;;;8.90;99.90;;;8.84;62.42;98644.09;5012295;28;19928;-85
2021/12/19 09:24:50;;;;;;;;;;;8.90;99.90;;;8.76;62.95;98652.72;5000961;28;19928;-85
2021/12/19 09:27:17;;;;;;;;;;;8.80;99.90;;;8.70;63.34;98651.06;5002309;28;19925;-84
2021/12/19 09:29:42;;;;;;;;;;;8.80;99.90;;;8.74;62.79;98654.88;5019548;28;19933;-84
2021/12/19 09:32:08;;;;;;;;;;;8.70;99.90;;;8.66;63.62;98642.69;5021697;28;19947;-85
2021/12/19 09:34:34;;;;;;;;;;;8.80;99.90;;;8.77;63.27;98659.75;5019143;28;19964;-85
2021/12/19 09:37:01;;;;;;;;;;;8.60;99.90;;;8.81;63.51;98655.44;5010421;28;19929;-85
2021/12/19 09:39:27;;;;;;;;;;;8.70;99.90;;;8.75;63.13;98645.69;5001201;28;19940;-85
2021/12/19 09:41:55;;;;;;;;;;;8.70;99.90;;;8.71;63.10;98641.88;5002390;28;19976;-82
2021/12/19 09:44:20;;;;;;;;;;;8.70;99.90;;;8.73;63.58;98642.44;5046749;28;19933;-82
2021/12/19 09:46:47;;;;;;;;;;;8.70;99.90;;;8.68;62.89;98627.00;5017976;28;19935;-83
2021/12/19 09:49:14;;;;;;;;;;;8.70;99.90;;;8.78;63.33;98633.53;5050752;28;20028;-82
2021/12/19 09:51:40;;;;;;;;;;;8.70;99.90;;;8.82;63.19;98624.59;5003451;28;19972;-82
2021/12/19 09:54:06;;;;;;;;;;;8.80;99.90;;;8.81;62.27;98614.88;5015265;28;19928;-82
2021/12/19 09:56:34;;;;;;;;;;;8.80;99.90;;;8.94;62.31;98629.78;4999927;28;20301;-82
2021/12/19 09:59:01;;;;;;;;;;;8.90;99.90;;;8.98;62.24;98630.06;5015940;28;19935;-82
2021/12/19 10:01:27;;;;;;;;;;;9.00;99.90;;;8.97;62.26;98628.44;4998185;28;20714;-82
2021/12/19 10:03:53;;;;;;;;;;;9.00;99.90;;;8.86;62.34;98624.91;5010874;28;19929;-82
2021/12/19 10:06:19;;;;;;;;;;;8.90;99.90;;;8.81;62.53;98620.28;5015942;28;19935;-82
2021/12/19 10:08:48;;;;;;;;;;;8.90;99.90;;;8.94;62.56;98612.75;5032035;28;19929;-82
2021/12/19 10:11:46;;;;;;;;;;;8.90;99.90;;;8.98;63.37;98614.66;5019098;28;21453;-83
2021/12/19 10:14:28;;;;;;;;;;;8.90;99.90;;;9.05;62.88;98598.16;5038352;28;20047;-82
2021/12/19 10:17:00;;;;;;;;;;;9.00;99.90;;;9.16;61.77;98582.72;5039251;28;19933;-82
2021/12/19 10:19:52;;;;;;;;;;;9.10;99.90;;;9.17;62.25;98587.88;5008867;28;20014;-82
2021/12/19 10:22:30;;;;;;;;;;;9.20;99.90;;;9.10;62.43;98580.00;5014208;28;19954;-82
2021/12/19 10:25:17;;;;;;;;;;;9.20;99.90;;;9.19;62.59;98584.91;5034673;28;19928;-82
2021/12/19 10:27:43;;;;;;;;;;;9.10;99.90;;;9.16;61.59;98561.91;5034151;28;20027;-82
2021/12/19 10:30:21;;;;;;;;;;;9.20;99.90;;;9.21;62.11;98567.31;5045923;28;19932;-82
2021/12/19 10:33:07;;;;;;;;;;;9.20;99.90;;;9.21;61.19;98545.69;5032351;28;20003;-82
2021/12/19 10:35:46;;;;;;;;;;;9.30;99.90;;;9.29;60.91;98550.53;5029119;28;19929;-82
2021/12/19 10:38:17;;;;;;;;;;;9.30;99.90;;;9.46;60.50;98550.25;5015681;28;20000;-82
2021/12/19 10:40:45;;;;;;;;;;;9.40;99.90;;;9.48;59.99;98531.84;5002689;28;20000;-81
2021/12/19 10:43:16;;;;;;;;;;;9.50;99.90;;;9.62;59.11;98545.63;5015630;28;19975;-84
2021/12/19 10:45:53;;;;;;;;;;;9.60;99.90;;;9.59;60.05;98527.19;5012712;28;20510;-85
2021/12/19 10:48:24;;;;;;;;;;;9.60;99.90;;;9.57;60.00;98527.50;5019297;28;20291;-84
2021/12/19 10:51:19;;;;;;;;;;;9.70;99.90;;;9.74;59.41;98512.81;5031439;28;20011;-86
2021/12/19 10:53:45;;;;;;;;;;;9.60;99.90;;;9.70;59.94;98518.00;5032093;28;20299;-86
2021/12/19 10:56:13;;;;;;;;;;;9.70;99.90;;;9.83;59.25;98510.38;5012953;28;20218;-86
2021/12/19 10:58:43;;;;;;;;;;;9.80;99.90;;;9.73;59.18;98512.00;4994683;28;19998;-86
2021/12/19 11:01:18;;;;;;;;;;;9.90;99.90;;;9.72;59.60;98512.31;5013979;28;19929;-86
2021/12/19 11:04:08;;;;;;;;;;;9.80;99.90;;;9.63;60.07;98503.91;5028563;28;19971;-86
2021/12/19 11:06:44;;;;;;;;;;;9.70;99.90;;;9.57;60.29;98511.25;5014685;28;20336;-86
2021/12/19 11:09:11;;;;;;;;;;;9.70;99.90;;;9.47;61.31;98505.06;5010680;28;20443;-86
2021/12/19 11:11:53;;;;;;;;;;;9.60;99.90;;;9.37;60.72;98494.25;5032932;28;19955;-86
2021/12/19 11:14:31;;;;;;;;;;;9.40;99.90;;;9.31;60.65;98499.66;5029179;28;19925;-86
2021/12/19 11:17:00;;;;;;;;;;;9.40;99.90;;;9.18;60.49;98489.38;5032851;28;19928;-86
2021/12/19 11:19:26;;;;;;;;;;;9.30;99.90;;;9.27;60.25;98479.63;4998118;28;19928;-87
2021/12/19 11:21:52;;;;;;;;;;;9.30;99.90;;;9.43;60.54;98483.09;5016267;28;19935;-87
2021/12/19 11:24:19;;;;;;;;;;;9.30;99.90;;;9.71;60.07;98486.28;5021440;28;20284;-87
2021/12/19 11:26:48;;;;;;;;;;;9.40;99.90;;;9.79;59.45;98466.75;5014221;28;19998;-86
2021/12/19 11:29:14;;;;;;;;;;;9.70;99.90;;;9.71;59.68;98480.88;5016171;28;20359;-83
2021/12/19 11:31:42;;;;;;;;;;;9.80;99.90;;;9.80;59.05;98473.00;5017281;28;20446;-87
2021/12/19 11:34:21;;;;;;;;;;;9.80;99.90;;;9.65;58.93;98479.28;4996421;28;19956;-87
2021/12/19 11:36:52;;;;;;;;;;;9.80;99.90;;;9.63;58.59;98463.31;5015593;28;19931;-87
2021/12/19 11:39:19;;;;;;;;;;;9.70;99.90;;;9.64;57.92;98466.81;5031506;28;19940;-85
2021/12/19 11:42:08;;;;;;;;;;;9.70;99.90;;;9.72;57.88;98466.25;5003378;28;19931;-85
2021/12/19 11:45:14;;;;;;;;;;;9.80;99.90;;;9.61;57.92;98460.06;5012737;28;19960;-84
2021/12/19 11:47:44;;;;;;;;;;;9.80;99.90;;;9.36;58.72;98463.63;5026214;28;19924;-85
2021/12/19 11:50:25;;;;;;;;;;;9.60;99.90;;;9.21;60.50;98452.81;5018256;28;20312;-85
2021/12/19 11:52:53;;;;;;;;;;;9.40;99.90;;;9.27;59.57;98447.16;5031406;28;20047;-84
2021/12/19 11:55:22;;;;;;;;;;;9.40;99.90;;;9.13;59.76;98440.66;5015967;28;19929;-85
2021/12/19 11:58:06;;;;;;;;;;;9.20;99.90;;;8.97;60.10;98444.47;5037737;28;19963;-85
2021/12/19 12:00:55;;;;;;;;;;;9.10;99.90;;;8.73;60.61;98447.75;5032008;28;19988;-85
2021/12/19 12:03:28;;;;;;;;;;;8.90;99.90;;;8.78;60.77;98436.91;5051783;28;19933;-84
2021/12/19 12:05:57;;;;;;;;;;;8.70;99.90;;;8.66;61.61;98433.66;5047497;28;19929;-85
2021/12/19 12:08:24;;;;;;;;;;;8.60;99.90;;;8.58;61.34;98437.72;5036556;28;20287;-85
2021/12/19 12:10:58;;;;;;;;;;;8.60;99.90;;;8.62;61.40;98427.97;5021623;28;20032;-85
2021/12/19 12:13:24;;;;;;;;;;;8.50;99.90;;;8.55;60.10;98432.84;5030044;28;20367;-85
2021/12/19 12:15:52;;;;;;;;;;;8.50;99.90;;;8.37;61.40;98417.09;5035806;28;19937;-85
2021/12/19 12:19:01;;;;;;;;;;;8.30;99.90;;;8.51;61.98;98422.84;5001229;28;20483;-85
2021/12/19 12:21:49;;;;;;;;;;;8.40;99.90;;;8.60;61.16;98415.81;5026152;28;19943;-85
2021/12/19 12:24:19;;;;;;;;;;;8.50;99.90;;;8.48;61.44;98414.19;5023643;28;19928;-85
2021/12/19 12:26:55;;;;;;;;;;;8.40;99.90;;;8.32;61.96;98411.69;5016389;28;19983;-85
2021/12/19 12:29:21;;;;;;;;;;;8.30;99.90;;;8.26;63.75;98402.78;5047440;28;19968;-84
2021/12/19 12:31:48;;;;;;;;;;;8.10;99.90;;;8.24;63.29;98399.53;5018688;28;19929;-84
2021/12/19 12:34:15;;;;;;;;;;;8.10;99.90;;;8.23;63.96;98396.03;5031555;28;19952;-84
2021/12/19 12:36:41;;;;;;;;;;;8.10;99.90;;;8.26;63.71;98398.19;5017916;28;19979;-84
2021/12/19 12:39:16;;;;;;;;;;;8.10;99.90;;;8.30;63.66;98390.38;5014550;28;19933;-84
2021/12/19 12:44:17;;;;;;;;;;;8.20;99.90;;;8.31;64.17;98389.28;5014329;28;20283;-84